createdAt,value
2024-05-09T00:00:54.523Z,14.08
2024-05-09T00:03:26.705Z,14.18
2024-05-09T00:05:53.836Z,11.95
2024-05-09T00:08:21.256Z,12.47
2024-05-09T00:10:52.972Z,12.25
2024-05-09T00:13:20.200Z,11.75
2024-05-09T00:15:49.670Z,11.17
2024-05-09T00:18:16.945Z,12.30
2024-05-09T00:20:48.419Z,11.79
2024-05-09T00:23:18.035Z,11.69
2024-05-09T00:25:47.848Z,12.13
2024-05-09T00:28:17.263Z,12.33
2024-05-09T00:30:46.972Z,11.43
2024-05-09T00:33:16.881Z,11.43
2024-05-09T00:35:44.355Z,10.85
2024-05-09T00:38:13.845Z,11.39
2024-05-09T00:40:43.858Z,11.47
2024-05-09T00:43:14.899Z,11.91
2024-05-09T00:45:43.387Z,11.97
2024-05-09T00:48:17.537Z,10.32
2024-05-09T00:50:54.158Z,10.23
2024-05-09T00:53:26.778Z,10.08
2024-05-09T00:55:58.921Z,9.16
2024-05-09T00:58:28.278Z,9.44
2024-05-09T01:01:01.751Z,9.25
2024-05-09T01:03:29.192Z,9.16
2024-05-09T01:05:56.538Z,10.43
2024-05-09T01:08:30.836Z,12.07
2024-05-09T01:11:03.077Z,11.11
2024-05-09T01:13:35.796Z,10.68
2024-05-09T01:16:03.317Z,9.47
2024-05-09T01:18:35.327Z,9.11
2024-05-09T01:21:10.292Z,8.73
2024-05-09T01:23:42.180Z,8.37
2024-05-09T01:26:11.981Z,9.42
2024-05-09T01:28:43.883Z,8.97
2024-05-09T01:31:18.120Z,9.19
2024-05-09T01:33:45.496Z,10.59
2024-05-09T01:36:18.195Z,10.53
2024-05-09T01:38:47.763Z,12.11
2024-05-09T01:41:19.578Z,12.25
2024-05-09T01:43:46.974Z,12.45
2024-05-09T01:46:19.564Z,12.08
2024-05-09T01:48:49.848Z,12.31
2024-05-09T01:51:21.493Z,12.45
2024-05-09T01:53:52.372Z,11.34
2024-05-09T01:56:21.901Z,9.36
2024-05-09T01:58:51.323Z,9.05
2024-05-09T02:01:20.991Z,10.27
2024-05-09T02:03:53.086Z,11.94
2024-05-09T02:06:27.341Z,11.95
2024-05-09T02:08:54.451Z,12.54
2024-05-09T02:11:28.721Z,11.77
2024-05-09T02:13:58.249Z,10.61
2024-05-09T02:16:25.465Z,8.14
2024-05-09T02:18:54.989Z,9.95
2024-05-09T02:21:22.233Z,10.15
2024-05-09T02:23:49.455Z,10.67
2024-05-09T02:26:19.046Z,10.33
2024-05-09T02:28:50.819Z,9.19
2024-05-09T02:31:22.337Z,7.89
2024-05-09T02:33:54.850Z,6.59
2024-05-09T02:36:26.526Z,9.88
2024-05-09T02:38:55.792Z,8.95
2024-05-09T02:41:25.481Z,8.43
2024-05-09T02:43:54.787Z,6.07
2024-05-09T02:46:24.169Z,6.10
2024-05-09T02:48:54.412Z,5.98
2024-05-09T02:51:23.719Z,7.09
2024-05-09T02:53:53.121Z,6.42
2024-05-09T02:56:23.432Z,5.97
2024-05-09T02:58:56.864Z,6.61
2024-05-09T03:01:24.070Z,7.15
2024-05-09T03:03:53.553Z,6.05
2024-05-09T03:06:20.848Z,5.59
2024-05-09T03:08:48.161Z,6.02
2024-05-09T03:11:23.448Z,6.11
2024-05-09T03:13:57.453Z,5.99
2024-05-09T03:16:24.661Z,5.45
2024-05-09T03:18:59.932Z,5.72
2024-05-09T03:21:27.264Z,5.54
2024-05-09T03:23:54.525Z,3.83
2024-05-09T03:26:23.876Z,4.32
2024-05-09T03:28:51.092Z,5.42
2024-05-09T03:31:19.588Z,5.27
2024-05-09T03:33:49.317Z,6.01
2024-05-09T03:36:16.623Z,4.99
2024-05-09T03:38:43.845Z,6.02
2024-05-09T03:41:12.665Z,5.51
2024-05-09T03:43:42.138Z,6.35
2024-05-09T03:46:09.292Z,5.93
2024-05-09T03:48:38.974Z,5.79
2024-05-09T03:51:07.054Z,4.35
2024-05-09T03:53:39.412Z,4.44
2024-05-09T03:56:07.689Z,4.28
2024-05-09T03:58:34.978Z,4.26
2024-05-09T04:01:02.147Z,5.31
2024-05-09T04:03:31.655Z,6.06
2024-05-09T04:06:03.806Z,6.47
2024-05-09T04:08:31.237Z,6.47
2024-05-09T04:10:58.415Z,4.99
2024-05-09T04:13:25.661Z,3.29
2024-05-09T04:15:52.905Z,2.63
2024-05-09T04:18:22.430Z,4.19
2024-05-09T04:20:49.708Z,4.34
2024-05-09T04:23:16.964Z,5.97
2024-05-09T04:25:45.464Z,6.45
2024-05-09T04:28:17.925Z,5.14
2024-05-09T04:30:47.568Z,4.37
2024-05-09T04:33:18.707Z,5.20
2024-05-09T04:35:49.574Z,5.23
2024-05-09T04:38:21.033Z,5.01
2024-05-09T04:40:48.476Z,4.86
2024-05-09T04:43:18.699Z,4.79
2024-05-09T04:45:46.518Z,4.27
2024-05-09T04:48:16.836Z,5.00
2024-05-09T04:50:44.478Z,5.17
2024-05-09T04:53:17.643Z,5.09
2024-05-09T04:55:45.640Z,5.06
2024-05-09T04:58:17.488Z,5.37
2024-05-09T05:00:47.676Z,5.70
2024-05-09T05:03:16.351Z,4.95
2024-05-09T05:05:45.465Z,5.91
2024-05-09T05:08:21.070Z,6.29
2024-05-09T05:10:50.697Z,5.42
2024-05-09T05:13:24.128Z,5.77
2024-05-09T05:15:58.398Z,5.52
2024-05-09T05:18:29.247Z,5.42
2024-05-09T05:20:57.108Z,5.59
2024-05-09T05:23:24.539Z,5.27
2024-05-09T05:25:55.198Z,5.77
2024-05-09T05:28:27.508Z,7.73
2024-05-09T05:30:57.084Z,8.31
2024-05-09T05:33:24.349Z,6.90
2024-05-09T05:35:53.817Z,7.90
2024-05-09T05:38:26.272Z,9.54
2024-05-09T05:40:55.447Z,10.05
2024-05-09T05:43:22.637Z,9.68
2024-05-09T05:45:52.030Z,9.62
2024-05-09T05:48:21.432Z,10.99
2024-05-09T05:50:53.570Z,14.13
2024-05-09T05:53:22.895Z,14.28
2024-05-09T05:55:52.259Z,13.17
2024-05-09T05:58:22.556Z,14.41
2024-05-09T06:00:53.530Z,14.18
2024-05-09T06:03:20.870Z,15.35
2024-05-09T06:05:52.536Z,12.01
2024-05-09T06:08:19.685Z,13.42
2024-05-09T06:10:49.329Z,15.80
2024-05-09T06:13:20.804Z,14.13
2024-05-09T06:15:50.177Z,14.38
2024-05-09T06:18:17.563Z,14.34
2024-05-09T06:20:45.146Z,14.43
2024-05-09T06:23:17.203Z,13.91
2024-05-09T06:25:51.104Z,13.50
2024-05-09T06:28:18.255Z,13.76
2024-05-09T06:30:47.875Z,13.99
2024-05-09T06:33:19.964Z,12.73
2024-05-09T06:35:49.363Z,15.39
2024-05-09T06:38:16.523Z,15.50
2024-05-09T06:40:48.315Z,15.52
2024-05-09T06:43:18.230Z,15.08
2024-05-09T06:45:52.528Z,14.78
2024-05-09T06:48:23.416Z,14.89
2024-05-09T06:50:55.969Z,14.61
2024-05-09T06:53:28.193Z,16.90
2024-05-09T06:55:55.367Z,15.67
2024-05-09T06:58:22.529Z,15.47
2024-05-09T07:00:51.849Z,15.74
2024-05-09T07:03:26.081Z,13.89
2024-05-09T07:05:53.301Z,13.65
2024-05-09T07:08:22.847Z,14.75
2024-05-09T07:10:50.249Z,13.82
2024-05-09T07:13:17.854Z,13.71
2024-05-09T07:15:47.335Z,14.51
2024-05-09T07:18:18.574Z,14.02
2024-05-09T07:20:49.856Z,14.56
2024-05-09T07:23:22.353Z,14.27
2024-05-09T07:25:49.574Z,14.83
2024-05-09T07:28:20.053Z,13.87
2024-05-09T07:30:51.609Z,13.84
2024-05-09T07:33:21.844Z,14.96
2024-05-09T07:35:53.796Z,14.73
2024-05-09T07:38:25.293Z,14.60
2024-05-09T07:40:54.912Z,16.21
2024-05-09T07:43:28.010Z,14.84
2024-05-09T07:46:00.906Z,14.51
2024-05-09T07:53:50.811Z,15.72
2024-05-09T07:56:26.113Z,15.82
2024-05-09T07:58:58.165Z,13.59
2024-05-09T08:01:30.363Z,13.93
2024-05-09T08:04:00.276Z,14.40
2024-05-09T08:06:30.043Z,15.97
2024-05-09T08:08:59.229Z,14.42
2024-05-09T08:11:34.687Z,14.29
2024-05-09T08:14:04.099Z,15.79
2024-05-09T08:16:35.868Z,15.93
2024-05-09T08:19:03.321Z,14.03
2024-05-09T08:21:32.840Z,15.19
2024-05-09T08:24:02.084Z,14.17
2024-05-09T08:26:31.676Z,15.18
2024-05-09T08:29:03.588Z,14.61
2024-05-09T08:31:30.849Z,13.95
2024-05-09T08:34:03.287Z,15.34
2024-05-09T08:36:33.403Z,15.07
2024-05-09T08:39:05.172Z,13.52
2024-05-09T08:41:41.756Z,14.11
2024-05-09T08:44:14.179Z,12.75
2024-05-09T08:46:42.442Z,12.99
2024-05-09T08:49:10.277Z,13.57
2024-05-09T08:51:37.621Z,13.25
2024-05-09T08:54:07.437Z,13.15
2024-05-09T08:56:36.026Z,13.23
2024-05-09T08:59:06.800Z,14.77
2024-05-09T09:01:35.778Z,14.12
2024-05-09T09:04:10.240Z,15.25
2024-05-09T09:06:41.355Z,14.20
2024-05-09T09:09:11.869Z,14.83
2024-05-09T09:11:39.078Z,15.76
2024-05-09T09:14:06.200Z,15.79
2024-05-09T09:16:36.178Z,15.20
2024-05-09T09:19:05.905Z,15.16
2024-05-09T09:21:36.873Z,14.74
2024-05-09T09:24:09.945Z,14.99
2024-05-09T09:26:44.604Z,15.57
2024-05-09T09:29:11.785Z,13.60
2024-05-09T09:31:42.177Z,14.93
2024-05-09T09:34:11.904Z,14.28
2024-05-09T09:36:39.340Z,13.93
2024-05-09T09:39:07.493Z,14.17
2024-05-09T09:41:37.046Z,11.59
2024-05-09T09:44:09.130Z,14.57
2024-05-09T09:46:39.591Z,14.43
2024-05-09T09:49:07.392Z,13.02
2024-05-09T09:51:35.570Z,13.66
2024-05-09T09:54:03.869Z,12.62
2024-05-09T09:56:37.857Z,14.07
2024-05-09T09:59:10.819Z,14.28
2024-05-09T10:01:38.074Z,15.68
2024-05-09T10:04:08.068Z,13.26
2024-05-09T10:06:41.326Z,13.47
2024-05-09T10:09:13.414Z,13.93
2024-05-09T10:11:45.391Z,13.47
2024-05-09T10:14:22.637Z,14.03
2024-05-09T10:16:52.024Z,13.57
2024-05-09T10:19:25.652Z,14.27
2024-05-09T10:22:04.640Z,14.04
2024-05-09T10:24:51.540Z,13.16
2024-05-09T10:27:30.629Z,11.81
2024-05-09T10:30:06.912Z,12.59
2024-05-09T10:32:41.827Z,13.58
2024-05-09T10:35:12.739Z,13.11
2024-05-09T10:37:42.264Z,12.77
2024-05-09T10:40:23.084Z,12.45
2024-05-09T10:43:02.572Z,12.55
2024-05-09T10:45:35.282Z,11.05
2024-05-09T10:48:03.177Z,14.34
2024-05-09T10:50:34.491Z,10.90
2024-05-09T10:53:02.547Z,11.85
2024-05-09T10:55:34.163Z,11.91
2024-05-09T10:58:01.373Z,11.33
2024-05-09T11:00:36.360Z,11.08
2024-05-09T11:03:06.429Z,10.61
2024-05-09T11:05:44.559Z,10.55
2024-05-09T11:08:14.834Z,9.66
2024-05-09T11:10:43.444Z,9.77
2024-05-09T11:13:13.180Z,9.65
2024-05-09T11:15:43.577Z,9.05
2024-05-09T11:18:24.243Z,10.05
2024-05-09T11:20:56.434Z,9.72
2024-05-09T11:23:27.733Z,8.46
2024-05-09T11:25:55.959Z,9.23
2024-05-09T11:28:27.082Z,10.11
2024-05-09T11:31:05.347Z,10.31
2024-05-09T11:33:40.420Z,9.31
2024-05-09T11:36:10.426Z,9.89
2024-05-09T11:38:45.022Z,8.79
2024-05-09T11:41:18.924Z,8.91
2024-05-09T11:43:48.561Z,9.43
2024-05-09T11:46:20.911Z,9.39
2024-05-09T11:48:50.558Z,9.41
2024-05-09T11:51:20.174Z,10.34
2024-05-09T11:53:49.786Z,9.64
2024-05-09T11:56:19.217Z,8.43
2024-05-09T11:58:46.439Z,9.75
2024-05-09T12:01:13.655Z,9.82
2024-05-09T12:03:45.789Z,9.41
2024-05-09T12:06:15.371Z,9.55
2024-05-09T12:08:45.072Z,10.21
2024-05-09T12:11:16.463Z,10.19
2024-05-09T12:13:46.041Z,11.21
2024-05-09T12:16:17.695Z,11.12
2024-05-09T12:18:47.301Z,11.35
2024-05-09T12:21:17.389Z,9.62
2024-05-09T12:23:44.584Z,11.58
2024-05-09T12:26:11.785Z,11.27
2024-05-09T12:28:43.915Z,10.91
2024-05-09T12:31:11.041Z,12.55
2024-05-09T12:33:40.436Z,13.56
2024-05-09T12:36:11.823Z,12.31
2024-05-09T12:38:46.059Z,12.68
2024-05-09T12:41:15.466Z,12.69
2024-05-09T12:43:42.682Z,12.59
2024-05-09T12:46:15.478Z,13.32
2024-05-09T12:48:45.073Z,14.37
2024-05-09T12:51:14.562Z,13.96
2024-05-09T12:53:46.106Z,12.78
2024-05-09T12:56:15.865Z,12.73
2024-05-09T12:58:43.024Z,14.71
2024-05-09T13:01:10.281Z,15.68
2024-05-09T13:03:39.776Z,15.44
2024-05-09T13:06:07.162Z,14.43
2024-05-09T13:08:34.586Z,14.51
2024-05-09T13:11:04.286Z,14.86
2024-05-09T13:13:31.343Z,13.85
2024-05-09T13:16:05.428Z,15.16
2024-05-09T13:18:37.405Z,12.45
2024-05-09T13:21:08.966Z,14.91
2024-05-09T13:23:40.733Z,15.89
2024-05-09T13:26:10.740Z,15.47
2024-05-09T13:28:40.234Z,14.55
2024-05-09T13:31:09.571Z,14.59
2024-05-09T13:33:41.105Z,14.41
2024-05-09T13:36:10.505Z,15.29
2024-05-09T13:38:42.240Z,15.01
2024-05-09T13:41:11.754Z,14.45
2024-05-09T13:43:39.008Z,14.17
2024-05-09T13:46:06.564Z,14.97
2024-05-09T13:48:36.006Z,14.77
2024-05-09T13:51:07.764Z,15.07
2024-05-09T13:53:35.701Z,14.31
2024-05-09T13:56:05.495Z,14.21
2024-05-09T13:58:37.140Z,14.02
2024-05-09T14:01:07.317Z,14.13
2024-05-09T14:03:37.087Z,15.55
2024-05-09T14:06:04.652Z,13.09
2024-05-09T14:08:31.863Z,14.64
2024-05-09T14:11:01.432Z,14.61
2024-05-09T14:13:28.699Z,15.59
2024-05-09T14:15:56.005Z,14.81
2024-05-09T14:18:27.801Z,14.98
2024-05-09T14:20:55.055Z,14.87
2024-05-09T14:23:24.637Z,16.33
2024-05-09T14:25:56.396Z,15.15
2024-05-09T14:28:30.673Z,16.89
2024-05-09T14:31:01.381Z,16.17
2024-05-09T14:33:30.747Z,14.69
2024-05-09T14:35:58.096Z,16.23
2024-05-09T14:38:25.389Z,15.78
2024-05-09T14:40:52.597Z,13.77
2024-05-09T14:43:24.678Z,15.61
2024-05-09T14:45:57.035Z,15.74
2024-05-09T14:48:27.189Z,15.58
2024-05-09T14:50:56.899Z,16.93
2024-05-09T14:53:24.013Z,15.69
2024-05-09T14:55:53.710Z,15.77
2024-05-09T14:58:21.049Z,15.22
2024-05-09T15:00:50.947Z,14.99
2024-05-09T15:03:23.257Z,15.05
2024-05-09T15:05:53.086Z,15.39
2024-05-09T15:08:22.915Z,15.49
2024-05-09T15:10:53.330Z,16.47
2024-05-09T15:13:21.104Z,15.03
2024-05-09T15:15:50.595Z,16.13
2024-05-09T15:18:20.770Z,24.54
2024-05-09T15:20:54.997Z,22.21
2024-05-09T15:23:29.084Z,25.12
2024-05-09T15:25:56.243Z,25.41
2024-05-09T15:28:26.014Z,25.26
2024-05-09T15:30:57.945Z,22.84
2024-05-09T15:33:27.950Z,25.27
2024-05-09T15:35:55.175Z,23.84
2024-05-09T15:38:26.431Z,23.03
2024-05-09T15:40:53.914Z,25.29
2024-05-09T15:43:25.111Z,22.45
2024-05-09T15:45:54.768Z,23.70
2024-05-09T15:48:26.662Z,25.01
2024-05-09T15:50:56.364Z,24.43
2024-05-09T15:53:30.587Z,24.48
2024-05-09T15:55:57.781Z,22.23
2024-05-09T15:58:25.693Z,23.19
2024-05-09T16:00:55.526Z,23.58
2024-05-09T16:03:28.367Z,22.96
2024-05-09T16:06:02.740Z,24.00
2024-05-09T16:08:32.158Z,22.73
2024-05-09T16:10:59.419Z,23.86
2024-05-09T16:13:28.816Z,26.03
2024-05-09T16:15:56.221Z,25.31
2024-05-09T16:18:25.823Z,26.33
2024-05-09T16:21:00.164Z,25.83
2024-05-09T16:23:27.652Z,26.97
2024-05-09T16:25:56.104Z,25.28
2024-05-09T16:28:28.480Z,24.38
2024-05-09T16:30:59.422Z,24.43
2024-05-09T16:33:31.378Z,24.66
2024-05-09T16:36:01.031Z,24.35
2024-05-09T16:38:28.176Z,26.47
2024-05-09T16:40:55.335Z,25.80
2024-05-09T16:43:22.737Z,25.03
2024-05-09T16:45:53.042Z,27.61
2024-05-09T16:48:20.298Z,26.79
2024-05-09T16:50:52.212Z,26.89
2024-05-09T16:53:21.746Z,24.79
2024-05-09T16:55:51.607Z,26.17
2024-05-09T16:58:21.072Z,25.47
2024-05-09T17:00:50.725Z,25.21
2024-05-09T17:03:18.250Z,25.89
2024-05-09T17:05:50.749Z,27.10
2024-05-09T17:08:18.352Z,27.36
2024-05-09T17:10:49.928Z,26.07
2024-05-09T17:13:22.696Z,28.03
2024-05-09T17:15:53.181Z,28.73
2024-05-09T17:18:22.662Z,27.12
2024-05-09T17:20:51.510Z,26.23
2024-05-09T17:23:20.999Z,24.21
2024-05-09T17:25:50.872Z,25.63
2024-05-09T17:28:18.693Z,24.42
2024-05-09T17:30:45.974Z,26.79
2024-05-09T17:33:15.634Z,26.25
2024-05-09T17:35:50.604Z,26.61
2024-05-09T17:38:18.489Z,24.67
2024-05-09T17:40:47.967Z,25.79
2024-05-09T17:43:17.710Z,26.89
2024-05-09T17:45:44.959Z,27.95
2024-05-09T17:48:12.593Z,27.01
2024-05-09T17:50:40.489Z,25.39
2024-05-09T17:53:11.549Z,23.26
2024-05-09T17:55:41.275Z,25.43
2024-05-09T17:58:12.798Z,24.83
2024-05-09T18:00:44.540Z,23.12
2024-05-09T18:03:14.751Z,22.87
2024-05-09T18:05:43.438Z,26.32
2024-05-09T18:08:14.073Z,23.99
2024-05-09T18:10:44.315Z,24.38
2024-05-09T18:13:16.100Z,25.25
2024-05-09T18:15:44.850Z,24.54
2024-05-09T18:18:13.107Z,24.80
2024-05-09T18:20:44.513Z,25.50
2024-05-09T18:23:20.092Z,25.80
2024-05-09T18:25:54.730Z,26.13
2024-05-09T18:28:24.375Z,25.31
2024-05-09T18:30:58.559Z,26.65
2024-05-09T18:33:30.340Z,26.87
2024-05-09T18:35:57.522Z,24.96
2024-05-09T18:38:26.999Z,26.17
2024-05-09T18:40:58.853Z,25.57
2024-05-09T18:43:35.061Z,26.52
2024-05-09T18:46:14.498Z,25.72
2024-05-09T18:48:44.338Z,24.36
2024-05-09T18:51:14.780Z,25.43
2024-05-09T18:53:43.357Z,26.28
2024-05-09T18:56:12.694Z,26.61
2024-05-09T18:58:44.565Z,27.41
2024-05-09T19:01:11.816Z,27.27
2024-05-09T19:03:43.808Z,26.84
2024-05-09T19:06:15.691Z,25.31
2024-05-09T19:08:42.904Z,25.07
2024-05-09T19:11:12.300Z,27.53
2024-05-09T19:13:44.078Z,25.40
2024-05-09T19:16:11.858Z,26.00
2024-05-09T19:18:46.783Z,26.27
2024-05-09T19:21:14.459Z,28.22
2024-05-09T19:23:52.241Z,25.88
2024-05-09T19:26:22.245Z,27.91
2024-05-09T19:28:52.272Z,28.71
2024-05-09T19:31:23.173Z,25.95
2024-05-09T19:33:52.889Z,26.44
2024-05-09T19:36:26.872Z,27.01
2024-05-09T19:38:56.230Z,28.65
2024-05-09T19:41:23.411Z,28.49
2024-05-09T19:43:55.244Z,28.48
2024-05-09T19:46:25.388Z,29.08
2024-05-09T19:48:52.783Z,29.13
2024-05-09T19:51:22.543Z,27.35
2024-05-09T19:53:51.862Z,31.24
2024-05-09T19:56:19.205Z,29.92
2024-05-09T19:58:46.446Z,29.37
2024-05-09T20:01:13.879Z,30.59
2024-05-09T20:03:43.571Z,30.21
2024-05-09T20:06:10.883Z,31.20
2024-05-09T20:08:43.372Z,32.23
2024-05-09T20:11:10.801Z,31.79
2024-05-09T20:13:40.005Z,28.24
2024-05-09T20:16:08.167Z,30.47
2024-05-09T20:18:35.606Z,31.47
2024-05-09T20:21:06.537Z,31.87
2024-05-09T20:23:33.872Z,34.11
2024-05-09T20:26:06.001Z,32.72
2024-05-09T20:28:33.599Z,33.32
2024-05-09T20:31:01.022Z,36.02
2024-05-09T20:33:30.641Z,35.31
2024-05-09T20:36:02.161Z,36.37
2024-05-09T20:38:29.849Z,37.49
2024-05-09T20:40:59.369Z,38.45
2024-05-09T20:43:31.980Z,40.67
2024-05-09T20:46:03.594Z,39.57
2024-05-09T20:48:30.988Z,40.06
2024-05-09T20:51:00.646Z,39.73
2024-05-09T20:53:30.166Z,40.35
2024-05-09T20:55:59.524Z,40.26
2024-05-09T20:58:30.542Z,40.26
2024-05-09T21:00:57.705Z,38.92
2024-05-09T21:03:25.075Z,40.43
2024-05-09T21:05:54.636Z,40.81
2024-05-09T21:08:25.826Z,39.25
2024-05-09T21:10:59.051Z,40.24
2024-05-09T21:13:28.398Z,39.35
2024-05-09T21:15:58.404Z,38.38
2024-05-09T21:18:27.968Z,37.60
2024-05-09T21:20:55.197Z,37.61
2024-05-09T21:23:27.170Z,36.55
2024-05-09T21:25:54.266Z,32.25
2024-05-09T21:28:21.587Z,33.19
2024-05-09T21:30:48.979Z,32.54
2024-05-09T21:33:19.480Z,33.15
2024-05-09T21:35:50.964Z,33.74
2024-05-09T21:38:20.480Z,36.07
2024-05-09T21:40:47.739Z,38.17
2024-05-09T21:43:17.942Z,37.12
2024-05-09T21:45:45.279Z,35.85
2024-05-09T21:48:15.381Z,40.39
2024-05-09T21:50:45.147Z,39.51
2024-05-09T21:53:16.698Z,36.84
2024-05-09T21:55:43.860Z,39.16
2024-05-09T21:58:18.883Z,39.93
2024-05-09T22:00:48.888Z,40.18
2024-05-09T22:03:20.813Z,39.23
2024-05-09T22:05:50.091Z,38.61
2024-05-09T22:08:19.385Z,40.22
2024-05-09T22:10:51.059Z,38.24
2024-05-09T22:13:20.814Z,32.82
2024-05-09T22:15:48.046Z,32.58
2024-05-09T22:18:21.997Z,36.26
2024-05-09T22:20:55.209Z,37.31
2024-05-09T22:23:24.795Z,38.27
2024-05-09T22:25:56.611Z,39.25
2024-05-09T22:28:26.185Z,38.81
2024-05-09T22:30:58.297Z,39.03
2024-05-09T22:33:25.487Z,38.30
2024-05-09T22:35:52.596Z,38.59
2024-05-09T22:38:24.413Z,39.67
2024-05-09T22:40:58.654Z,38.15
2024-05-09T22:43:28.141Z,39.72
2024-05-09T22:45:55.720Z,40.57
2024-05-09T22:48:24.498Z,39.91
2024-05-09T22:50:54.764Z,38.57
2024-05-09T22:53:24.212Z,36.15
2024-05-09T22:55:51.322Z,37.98
2024-05-09T22:58:19.155Z,38.18
2024-05-09T23:00:53.301Z,39.83
2024-05-09T23:03:21.702Z,41.56
2024-05-09T23:05:54.188Z,40.21
2024-05-09T23:08:23.500Z,41.37
2024-05-09T23:10:50.925Z,41.06
2024-05-09T23:13:23.230Z,42.33
2024-05-09T23:15:50.626Z,41.15
2024-05-09T23:18:20.054Z,40.27
2024-05-09T23:20:47.296Z,35.19
2024-05-09T23:23:14.449Z,34.49
2024-05-09T23:25:47.557Z,34.39
2024-05-09T23:28:19.314Z,36.70
2024-05-09T23:30:49.049Z,36.93
2024-05-09T23:33:18.958Z,37.63
2024-05-09T23:35:48.315Z,36.39
2024-05-09T23:38:19.530Z,37.71
2024-05-09T23:40:50.656Z,34.11
2024-05-09T23:43:21.647Z,35.63
2024-05-09T23:45:48.893Z,37.37
2024-05-09T23:48:16.150Z,35.08
2024-05-09T23:50:43.287Z,35.75
2024-05-09T23:53:15.255Z,36.20
2024-05-09T23:55:42.389Z,36.48
2024-05-09T23:58:12.524Z,37.11
